Time;durP1;ratioP1;P1;durP2;ratioP2;P2;SDS_P1;SDS_P2;PMS_P1;PMS_P2;Temp;Humidity;BMP_temperature;BMP_pressure;BME280_temperature;BME280_humidity;BME280_pressure;Samples;Min_cycle;Max_cycle;Signal;HPM_P1;HPM_P2
2022/01/07 00:01:27;;;;;;;4.97;2.00;;;;;;;;;;4607185;27;20028;-58
2022/01/07 00:03:38;;;;;;;3.23;1.60;;;;;;;;;;4605374;27;21265;-58
2022/01/07 00:05:49;;;;;;;3.80;1.88;;;;;;;;;;4572658;27;20032;-58
2022/01/07 00:07:59;;;;;;;4.63;2.00;;;;;;;;;;4606530;27;20092;-58
2022/01/07 00:10:11;;;;;;;4.60;2.20;;;;;;;;;;4607923;27;23053;-58
2022/01/07 00:12:22;;;;;;;5.15;2.15;;;;;;;;;;4612992;27;20027;-58
2022/01/07 00:14:33;;;;;;;4.18;2.08;;;;;;;;;;4606752;27;20054;-58
2022/01/07 00:16:43;;;;;;;4.17;2.10;;;;;;;;;;4606570;27;20022;-58
2022/01/07 00:18:56;;;;;;;5.10;2.20;;;;;;;;;;4610901;27;34235;-58
2022/01/07 00:21:06;;;;;;;4.63;1.80;;;;;;;;;;4605644;27;20031;-58
2022/01/07 00:23:17;;;;;;;3.20;1.90;;;;;;;;;;4604249;27;20027;-57
2022/01/07 00:25:27;;;;;;;4.37;1.80;;;;;;;;;;4605500;27;20045;-58
2022/01/07 00:27:38;;;;;;;3.67;1.67;;;;;;;;;;4605472;27;20034;-58
2022/01/07 00:29:49;;;;;;;4.47;1.92;;;;;;;;;;4601680;27;20055;-58
2022/01/07 00:32:00;;;;;;;3.33;1.90;;;;;;;;;;4604238;27;20107;-58
2022/01/07 00:34:10;;;;;;;5.13;2.00;;;;;;;;;;4610856;27;20279;-58
2022/01/07 00:36:21;;;;;;;3.80;1.90;;;;;;;;;;4608381;27;20031;-59
2022/01/07 00:38:32;;;;;;;4.80;1.90;;;;;;;;;;4604730;27;20016;-58
2022/01/07 00:40:43;;;;;;;;;;;;;;;;;;4609825;27;20020;-58
2022/01/07 00:42:54;;;;;;;3.60;1.70;;;;;;;;;;4609001;27;19911;-58
2022/01/07 00:45:05;;;;;;;3.65;1.73;;;;;;;;;;4604379;27;20032;-58
2022/01/07 00:47:16;;;;;;;3.78;1.90;;;;;;;;;;4603946;27;20023;-57
2022/01/07 00:49:27;;;;;;;3.25;1.50;;;;;;;;;;4604185;27;20039;-58
2022/01/07 00:51:37;;;;;;;5.97;2.00;;;;;;;;;;4606554;27;20027;-57
2022/01/07 00:53:48;;;;;;;4.77;2.00;;;;;;;;;;4607028;27;28191;-58
2022/01/07 00:55:58;;;;;;;4.30;2.00;;;;;;;;;;4608263;27;20544;-57
2022/01/07 00:58:08;;;;;;;4.17;1.70;;;;;;;;;;4607392;27;20036;-58
2022/01/07 01:00:21;;;;;;;5.57;2.07;;;;;;;;;;4606847;27;25929;-58
2022/01/07 01:02:31;;;;;;;4.63;1.63;;;;;;;;;;4583805;27;20020;-58
2022/01/07 01:04:43;;;;;;;4.33;1.83;;;;;;;;;;4605740;27;20039;-58
2022/01/07 01:06:54;;;;;;;4.25;1.65;;;;;;;;;;4608612;27;20783;-59
2022/01/07 01:09:04;;;;;;;4.47;1.63;;;;;;;;;;4608999;27;30849;-57
2022/01/07 01:11:14;;;;;;;4.13;1.80;;;;;;;;;;4610623;27;20868;-58
2022/01/07 01:13:26;;;;;;;3.60;1.53;;;;;;;;;;4609250;27;20023;-57
2022/01/07 01:15:36;;;;;;;3.72;1.73;;;;;;;;;;4608195;27;20106;-58
2022/01/07 01:17:46;;;;;;;4.27;1.80;;;;;;;;;;4608436;27;20034;-58
2022/01/07 01:19:57;;;;;;;3.87;1.63;;;;;;;;;;4610730;27;20510;-57
2022/01/07 01:22:08;;;;;;;2.60;1.40;;;;;;;;;;4608957;27;20019;-58
2022/01/07 01:24:19;;;;;;;4.45;1.55;;;;;;;;;;4610180;27;20046;-58
2022/01/07 01:26:29;;;;;;;3.03;1.40;;;;;;;;;;4608578;27;20033;-58
2022/01/07 01:28:40;;;;;;;3.03;1.57;;;;;;;;;;4608533;27;31863;-58
2022/01/07 01:30:51;;;;;;;4.20;1.45;;;;;;;;;;4609476;27;20542;-58
2022/01/07 01:33:01;;;;;;;3.23;1.50;;;;;;;;;;4608530;27;20142;-58
2022/01/07 01:35:12;;;;;;;3.40;1.57;;;;;;;;;;4606653;27;20031;-58
2022/01/07 01:37:23;;;;;;;3.50;1.47;;;;;;;;;;4609936;27;20031;-58
2022/01/07 01:39:33;;;;;;;3.57;1.63;;;;;;;;;;4609110;27;20246;-58
2022/01/07 01:41:44;;;;;;;2.90;1.80;;;;;;;;;;4605339;27;20035;-58
2022/01/07 01:43:55;;;;;;;2.95;1.48;;;;;;;;;;4607384;27;20049;-58
2022/01/07 01:46:05;;;;;;;3.83;1.40;;;;;;;;;;4608252;27;20028;-58
2022/01/07 01:48:16;;;;;;;3.73;1.43;;;;;;;;;;4608500;27;20058;-58
2022/01/07 01:50:26;;;;;;;4.07;1.60;;;;;;;;;;4605003;27;20106;-58
2022/01/07 01:52:37;;;;;;;2.50;1.40;;;;;;;;;;4610549;27;20031;-58
2022/01/07 01:54:48;;;;;;;5.07;1.53;;;;;;;;;;4607947;27;20110;-58
2022/01/07 01:56:58;;;;;;;2.53;1.40;;;;;;;;;;4606084;27;20031;-58
2022/01/07 01:59:09;;;;;;;4.03;1.60;;;;;;;;;;4606542;27;20034;-58
2022/01/07 02:01:23;;;;;;;4.00;1.42;;;;;;;;;;4606063;27;20042;-58
2022/01/07 02:03:34;;;;;;;2.70;1.70;;;;;;;;;;4605603;27;20051;-58
2022/01/07 02:05:45;;;;;;;2.37;1.37;;;;;;;;;;4608112;27;20056;-58
2022/01/07 02:07:55;;;;;;;2.80;1.30;;;;;;;;;;4607567;27;31601;-58
2022/01/07 02:10:08;;;;;;;3.03;1.50;;;;;;;;;;4605286;27;20036;-58
2022/01/07 02:12:19;;;;;;;3.47;1.70;;;;;;;;;;4607114;27;20587;-58
2022/01/07 02:14:30;;;;;;;2.90;1.20;;;;;;;;;;4608236;27;20020;-58
2022/01/07 02:16:40;;;;;;;3.25;1.40;;;;;;;;;;4606317;27;20122;-59
2022/01/07 02:18:51;;;;;;;3.47;1.50;;;;;;;;;;4607768;27;20027;-58
2022/01/07 02:21:02;;;;;;;4.07;1.50;;;;;;;;;;4607205;27;20497;-58
2022/01/07 02:23:13;;;;;;;4.15;1.73;;;;;;;;;;4608739;27;25895;-58
2022/01/07 02:25:24;;;;;;;3.17;1.48;;;;;;;;;;4612832;27;20031;-58
2022/01/07 02:27:40;;;;;;;3.88;1.63;;;;;;;;;;4604870;27;20055;-58
2022/01/07 02:29:51;;;;;;;2.20;1.40;;;;;;;;;;4608285;27;20715;-58
2022/01/07 02:32:02;;;;;;;4.35;1.42;;;;;;;;;;4606450;27;20024;-58
2022/01/07 02:34:12;;;;;;;3.80;1.47;;;;;;;;;;4605749;27;20858;-58
2022/01/07 02:36:22;;;;;;;4.07;1.50;;;;;;;;;;4606947;27;23659;-58
2022/01/07 02:38:34;;;;;;;3.80;1.53;;;;;;;;;;4610438;27;20134;-58
2022/01/07 02:40:45;;;;;;;4.72;1.48;;;;;;;;;;4605980;27;20760;-58
2022/01/07 02:42:55;;;;;;;2.47;1.20;;;;;;;;;;4605349;27;21271;-58
2022/01/07 02:45:08;;;;;;;2.90;1.50;;;;;;;;;;4605411;27;20047;-58
2022/01/07 02:47:21;;;;;;;3.58;1.33;;;;;;;;;;4606380;27;20039;-58
2022/01/07 02:49:31;;;;;;;2.67;1.33;;;;;;;;;;4608205;27;20028;-58
2022/01/07 02:51:42;;;;;;;2.83;1.40;;;;;;;;;;4609085;27;20012;-58
2022/01/07 02:53:52;;;;;;;4.57;1.57;;;;;;;;;;4605412;27;20032;-58
2022/01/07 02:56:03;;;;;;;3.57;1.53;;;;;;;;;;4607197;27;20355;-58
2022/01/07 02:58:13;;;;;;;4.10;1.30;;;;;;;;;;4608502;27;20138;-58
2022/01/07 03:00:25;;;;;;;3.77;1.40;;;;;;;;;;4610555;27;20035;-58
2022/01/07 03:02:35;;;;;;;2.38;1.30;;;;;;;;;;4607838;27;20060;-58
2022/01/07 03:04:46;;;;;;;2.83;1.47;;;;;;;;;;4608188;27;20069;-58
2022/01/07 03:06:56;;;;;;;2.50;1.30;;;;;;;;;;4606087;27;20024;-58
2022/01/07 03:09:07;;;;;;;4.13;1.20;;;;;;;;;;4606830;27;32383;-58
2022/01/07 03:11:18;;;;;;;2.47;1.20;;;;;;;;;;4604157;27;20038;-58
2022/01/07 03:13:29;;;;;;;;;;;;;;;;;;4607864;27;20109;-58
2022/01/07 03:15:39;;;;;;;1.50;0.82;;;;;;;;;;4606710;27;19956;-58
2022/01/07 03:17:50;;;;;;;3.53;1.47;;;;;;;;;;4605660;27;20062;-58
2022/01/07 03:20:00;;;;;;;3.10;1.30;;;;;;;;;;4613058;27;21055;-58
2022/01/07 03:22:11;;;;;;;3.17;1.50;;;;;;;;;;4605477;27;30950;-59
2022/01/07 03:24:21;;;;;;;3.00;1.13;;;;;;;;;;4605591;27;20082;-58
2022/01/07 03:26:31;;;;;;;2.87;1.10;;;;;;;;;;4604650;27;31268;-58
2022/01/07 03:28:44;;;;;;;3.47;1.00;;;;;;;;;;4605367;27;20026;-59
2022/01/07 03:30:54;;;;;;;2.33;1.20;;;;;;;;;;4608780;27;20027;-59
2022/01/07 03:33:06;;;;;;;3.00;1.27;;;;;;;;;;4605368;27;29352;-59
2022/01/07 03:35:17;;;;;;;2.20;1.10;;;;;;;;;;4608518;27;20034;-59
2022/01/07 03:37:27;;;;;;;2.58;1.42;;;;;;;;;;4608109;27;20099;-59
2022/01/07 03:39:37;;;;;;;2.73;0.97;;;;;;;;;;4606488;27;28804;-59
2022/01/07 03:41:48;;;;;;;3.27;1.20;;;;;;;;;;4605614;27;20023;-58
2022/01/07 03:43:58;;;;;;;1.93;1.17;;;;;;;;;;4608382;27;20035;-58
2022/01/07 03:46:09;;;;;;;2.50;1.30;;;;;;;;;;4611418;27;20018;-58
2022/01/07 03:48:19;;;;;;;3.13;1.20;;;;;;;;;;4605435;27;20030;-58
2022/01/07 03:50:30;;;;;;;2.40;1.17;;;;;;;;;;4606814;27;20101;-58
2022/01/07 03:52:41;;;;;;;2.55;1.30;;;;;;;;;;4606223;27;20028;-58
2022/01/07 03:54:52;;;;;;;2.15;1.00;;;;;;;;;;4606496;27;20027;-58
2022/01/07 03:57:02;;;;;;;2.53;1.40;;;;;;;;;;4605941;27;20024;-58
2022/01/07 03:59:13;;;;;;;2.70;1.30;;;;;;;;;;4606462;27;20027;-58
2022/01/07 04:01:23;;;;;;;1.33;0.97;;;;;;;;;;4608084;27;20473;-58
2022/01/07 04:03:34;;;;;;;2.37;1.20;;;;;;;;;;4607420;27;25352;-58
2022/01/07 04:05:45;;;;;;;3.03;1.70;;;;;;;;;;4612277;27;20023;-58
2022/01/07 04:07:55;;;;;;;2.20;1.48;;;;;;;;;;4611441;27;20620;-58
2022/01/07 04:10:06;;;;;;;2.73;1.20;;;;;;;;;;4595682;27;20066;-58
2022/01/07 04:12:16;;;;;;;3.20;1.37;;;;;;;;;;4605211;27;20027;-58
2022/01/07 04:14:27;;;;;;;2.23;1.10;;;;;;;;;;4611778;27;23531;-59
2022/01/07 04:16:38;;;;;;;3.50;1.30;;;;;;;;;;4604863;27;20032;-58
2022/01/07 04:18:48;;;;;;;2.30;1.30;;;;;;;;;;4606203;27;20384;-59
2022/01/07 04:20:58;;;;;;;4.10;1.30;;;;;;;;;;4605922;27;24252;-58
2022/01/07 04:23:09;;;;;;;2.00;1.10;;;;;;;;;;4607076;27;20019;-59
2022/01/07 04:25:21;;;;;;;1.87;1.13;;;;;;;;;;4603882;27;30526;-58
2022/01/07 04:27:31;;;;;;;2.97;1.30;;;;;;;;;;4608343;27;20112;-58
2022/01/07 04:29:42;;;;;;;3.03;1.27;;;;;;;;;;4607953;27;20012;-59
2022/01/07 04:31:52;;;;;;;2.70;1.23;;;;;;;;;;4606133;27;29245;-59
2022/01/07 04:34:02;;;;;;;2.47;1.20;;;;;;;;;;4606660;27;26262;-59
2022/01/07 04:36:13;;;;;;;2.23;1.13;;;;;;;;;;4605002;27;21359;-58
2022/01/07 04:38:23;;;;;;;2.07;1.00;;;;;;;;;;4601978;27;20020;-58
2022/01/07 04:40:35;;;;;;;3.13;1.30;;;;;;;;;;4610291;27;20620;-61
2022/01/07 04:42:45;;;;;;;2.05;1.25;;;;;;;;;;4610066;27;20119;-58
2022/01/07 04:44:56;;;;;;;3.73;1.13;;;;;;;;;;4610032;27;20045;-59
2022/01/07 04:47:08;;;;;;;2.37;1.27;;;;;;;;;;4608547;27;20031;-58
2022/01/07 04:49:18;;;;;;;3.90;1.20;;;;;;;;;;4608516;27;20027;-59
2022/01/07 04:51:29;;;;;;;2.33;1.00;;;;;;;;;;4613742;27;20572;-58
2022/01/07 04:53:40;;;;;;;3.78;1.23;;;;;;;;;;4611493;27;20548;-59
2022/01/07 04:55:50;;;;;;;2.13;1.20;;;;;;;;;;4607274;27;20016;-59
2022/01/07 04:58:00;;;;;;;1.50;0.90;;;;;;;;;;4604617;27;24319;-58
2022/01/07 05:00:13;;;;;;;2.20;1.00;;;;;;;;;;4606529;27;20020;-59
2022/01/07 05:02:23;;;;;;;2.45;0.90;;;;;;;;;;4624835;27;20050;-59
2022/01/07 05:04:34;;;;;;;2.90;1.30;;;;;;;;;;4609156;27;20047;-59
2022/01/07 05:06:45;;;;;;;4.17;1.50;;;;;;;;;;4611133;27;20424;-59
2022/01/07 05:08:55;;;;;;;2.90;1.30;;;;;;;;;;4608834;27;20027;-59
2022/01/07 05:11:05;;;;;;;2.10;1.10;;;;;;;;;;4606189;27;23037;-59
2022/01/07 05:13:16;;;;;;;2.47;1.00;;;;;;;;;;4606705;27;20078;-59
2022/01/07 05:15:26;;;;;;;2.50;1.20;;;;;;;;;;4605394;27;30382;-59
2022/01/07 05:17:37;;;;;;;2.47;1.30;;;;;;;;;;4610050;27;20035;-59
2022/01/07 05:19:47;;;;;;;2.90;1.07;;;;;;;;;;4605557;27;20023;-59
2022/01/07 05:21:58;;;;;;;3.30;1.27;;;;;;;;;;4608238;27;20023;-59
2022/01/07 05:24:08;;;;;;;2.47;0.97;;;;;;;;;;4608056;27;20765;-58
2022/01/07 05:26:18;;;;;;;2.10;1.10;;;;;;;;;;4607477;27;20034;-59
2022/01/07 05:28:29;;;;;;;2.67;1.43;;;;;;;;;;4607079;27;20065;-59
2022/01/07 05:30:39;;;;;;;2.77;1.03;;;;;;;;;;4609719;27;20511;-59
2022/01/07 05:32:49;;;;;;;2.77;1.00;;;;;;;;;;4609677;27;24770;-58
2022/01/07 05:35:00;;;;;;;2.10;1.10;;;;;;;;;;4607205;27;20020;-59
2022/01/07 05:37:11;;;;;;;2.30;0.93;;;;;;;;;;4607627;27;20015;-59
2022/01/07 05:39:22;;;;;;;3.43;1.30;;;;;;;;;;4606122;27;20114;-59
2022/01/07 05:41:32;;;;;;;3.37;1.20;;;;;;;;;;4614768;27;20110;-59
2022/01/07 05:43:43;;;;;;;2.23;1.17;;;;;;;;;;4596036;27;20281;-59
2022/01/07 05:45:55;;;;;;;2.67;1.03;;;;;;;;;;4607837;27;20102;-59
2022/01/07 05:48:05;;;;;;;2.65;1.23;;;;;;;;;;4606797;27;20237;-59
2022/01/07 05:50:16;;;;;;;1.97;1.00;;;;;;;;;;4608257;27;20036;-60
2022/01/07 05:52:26;;;;;;;2.23;1.10;;;;;;;;;;4613772;27;20058;-60
2022/01/07 05:54:36;;;;;;;2.93;1.10;;;;;;;;;;4607593;27;20593;-60
2022/01/07 05:56:47;;;;;;;2.07;1.00;;;;;;;;;;4607972;27;20032;-59
2022/01/07 05:58:57;;;;;;;3.43;1.20;;;;;;;;;;4606506;27;20023;-59
2022/01/07 06:01:11;;;;;;;4.23;1.10;;;;;;;;;;4608586;27;20027;-60
2022/01/07 06:03:21;;;;;;;2.45;1.10;;;;;;;;;;4608102;27;20972;-60
2022/01/07 06:05:32;;;;;;;1.97;1.23;;;;;;;;;;4609697;27;20032;-59
2022/01/07 06:07:42;;;;;;;2.40;1.00;;;;;;;;;;4607758;27;20024;-60
2022/01/07 06:09:52;;;;;;;2.67;1.30;;;;;;;;;;4608299;27;28194;-60
2022/01/07 06:12:03;;;;;;;3.03;1.60;;;;;;;;;;4607540;27;20678;-59
2022/01/07 06:14:14;;;;;;;3.07;1.27;;;;;;;;;;4605514;27;20039;-61
2022/01/07 06:16:24;;;;;;;2.53;1.13;;;;;;;;;;4607090;27;27494;-60
2022/01/07 06:18:37;;;;;;;3.03;1.10;;;;;;;;;;4610162;27;28693;-60
2022/01/07 06:20:47;;;;;;;2.08;0.80;;;;;;;;;;4600830;27;20036;-60
2022/01/07 06:22:58;;;;;;;2.07;1.20;;;;;;;;;;4606793;27;20027;-60
2022/01/07 06:25:08;;;;;;;1.90;1.10;;;;;;;;;;4606446;27;20036;-60
2022/01/07 06:27:19;;;;;;;2.10;0.93;;;;;;;;;;4607578;27;20451;-59
2022/01/07 06:29:29;;;;;;;3.03;1.30;;;;;;;;;;4612849;27;20096;-59
2022/01/07 06:31:39;;;;;;;2.30;1.20;;;;;;;;;;4606368;27;20030;-60
2022/01/07 06:33:50;;;;;;;2.00;0.93;;;;;;;;;;4605966;27;21148;-59
2022/01/07 06:36:00;;;;;;;2.23;1.03;;;;;;;;;;4606266;27;20049;-59
2022/01/07 06:38:11;;;;;;;2.43;1.00;;;;;;;;;;4607821;27;20024;-59
2022/01/07 06:40:21;;;;;;;2.93;1.40;;;;;;;;;;4606735;27;20035;-59
2022/01/07 06:42:32;;;;;;;1.47;1.00;;;;;;;;;;4606858;27;20354;-59
2022/01/07 06:44:42;;;;;;;2.23;1.03;;;;;;;;;;4611871;27;20090;-59
2022/01/07 06:46:53;;;;;;;1.17;0.77;;;;;;;;;;4609222;27;20027;-59
2022/01/07 06:49:03;;;;;;;1.73;0.97;;;;;;;;;;4606247;27;20110;-59
2022/01/07 06:51:14;;;;;;;2.27;1.10;;;;;;;;;;4607678;27;26106;-60
2022/01/07 06:53:24;;;;;;;2.87;0.93;;;;;;;;;;4607536;27;20016;-59
2022/01/07 06:55:35;;;;;;;3.00;1.00;;;;;;;;;;4605950;27;20040;-59
2022/01/07 06:57:45;;;;;;;1.60;0.87;;;;;;;;;;4608689;27;25951;-60
2022/01/07 06:59:56;;;;;;;1.83;0.87;;;;;;;;;;4605456;27;20016;-59
2022/01/07 07:02:07;;;;;;;1.43;0.87;;;;;;;;;;4605938;27;20076;-59
2022/01/07 07:04:17;;;;;;;2.13;0.90;;;;;;;;;;4604023;27;25234;-59
2022/01/07 07:06:28;;;;;;;1.60;1.07;;;;;;;;;;4607795;27;20028;-60
2022/01/07 07:08:38;;;;;;;1.80;0.80;;;;;;;;;;4606955;27;20680;-60
2022/01/07 07:10:49;;;;;;;1.60;0.80;;;;;;;;;;4610024;27;20046;-59
2022/01/07 07:13:00;;;;;;;1.02;0.80;;;;;;;;;;4605766;27;20031;-60
2022/01/07 07:15:10;;;;;;;1.47;0.87;;;;;;;;;;4608752;27;20023;-59
2022/01/07 07:17:21;;;;;;;1.07;0.70;;;;;;;;;;4605826;27;20028;-59
2022/01/07 07:19:32;;;;;;;1.42;0.82;;;;;;;;;;4605450;27;20023;-59
2022/01/07 07:21:43;;;;;;;1.47;0.70;;;;;;;;;;4606898;27;20726;-59
2022/01/07 07:23:53;;;;;;;2.00;0.80;;;;;;;;;;4604677;27;20027;-59
2022/01/07 07:26:04;;;;;;;0.90;0.70;;;;;;;;;;4606716;27;22775;-59
2022/01/07 07:28:14;;;;;;;1.37;0.90;;;;;;;;;;4605996;27;20114;-59
2022/01/07 07:30:32;;;;;;;1.37;0.70;;;;;;;;;;4607912;27;20548;-59
2022/01/07 07:32:42;;;;;;;1.70;0.80;;;;;;;;;;4610401;27;20027;-59
2022/01/07 07:36:26;;;;;;;1.80;0.80;;;;;;;;;;4605232;27;20035;-59
2022/01/07 07:37:26;;;;;;;3.05;1.05;;;;;;;;;;4602858;27;20031;-59
2022/01/07 07:39:37;;;;;;;1.40;0.60;;;;;;;;;;4608587;27;20435;-59
2022/01/07 07:41:49;;;;;;;1.42;0.88;;;;;;;;;;4606511;27;20031;-59
2022/01/07 07:43:59;;;;;;;2.10;0.98;;;;;;;;;;4609594;27;20039;-59
2022/01/07 07:46:10;;;;;;;1.80;0.80;;;;;;;;;;4605814;27;20031;-59
2022/01/07 07:48:20;;;;;;;1.47;0.80;;;;;;;;;;4603384;27;20027;-59
2022/01/07 07:50:31;;;;;;;1.17;0.90;;;;;;;;;;4611630;27;20024;-59
2022/01/07 07:52:41;;;;;;;0.80;0.70;;;;;;;;;;4607182;27;20642;-59
2022/01/07 07:54:51;;;;;;;0.77;0.70;;;;;;;;;;4605531;27;20023;-60
2022/01/07 07:57:02;;;;;;;0.87;0.60;;;;;;;;;;4605718;27;31742;-60
2022/01/07 07:59:12;;;;;;;1.43;0.80;;;;;;;;;;4606701;27;20020;-60
2022/01/07 08:01:24;;;;;;;1.53;0.90;;;;;;;;;;4580342;27;20578;-60
2022/01/07 08:03:34;;;;;;;0.77;0.73;;;;;;;;;;4606026;27;20023;-60
2022/01/07 08:05:45;;;;;;;0.93;0.60;;;;;;;;;;4604648;27;20024;-60
2022/01/07 08:07:56;;;;;;;1.63;0.70;;;;;;;;;;4611513;27;20027;-60
2022/01/07 08:10:07;;;;;;;1.20;0.60;;;;;;;;;;4608254;27;20019;-60
2022/01/07 08:12:27;;;;;;;;;;;;;;;;;;4605864;27;20480;-60
2022/01/07 08:17:08;;;;;;;2.40;1.23;;;;;;;;;;4605860;27;20029;-60
2022/01/07 08:19:18;;;;;;;0.98;0.80;;;;;;;;;;4608031;27;20549;-60
2022/01/07 08:21:29;;;;;;;2.00;1.07;;;;;;;;;;4610919;27;20027;-60
2022/01/07 08:23:41;;;;;;;1.50;0.70;;;;;;;;;;4607730;27;20023;-60
2022/01/07 08:25:52;;;;;;;1.33;0.80;;;;;;;;;;4602959;27;20035;-60
2022/01/07 08:28:04;;;;;;;1.33;0.83;;;;;;;;;;4611355;27;20027;-58
2022/01/07 08:30:22;;;;;;;1.67;1.13;;;;;;;;;;4603523;27;20099;-59
2022/01/07 08:35:03;;;;;;;2.22;0.90;;;;;;;;;;4605070;27;20042;-59
2022/01/07 08:37:15;;;;;;;3.72;1.77;;;;;;;;;;4607302;27;20047;-59
2022/01/07 08:39:26;;;;;;;1.23;0.93;;;;;;;;;;4603744;27;20053;-59
2022/01/07 08:41:37;;;;;;;0.93;0.90;;;;;;;;;;4607236;27;20022;-59
2022/01/07 08:43:48;;;;;;;1.08;0.70;;;;;;;;;;4610742;27;20563;-59
2022/01/07 08:45:59;;;;;;;1.25;0.75;;;;;;;;;;4593902;27;20032;-59
2022/01/07 08:48:09;;;;;;;1.43;0.70;;;;;;;;;;4603803;27;20514;-59
2022/01/07 08:50:20;;;;;;;0.97;0.90;;;;;;;;;;4603755;27;20588;-59
2022/01/07 08:52:30;;;;;;;1.57;0.90;;;;;;;;;;4605110;27;20093;-58
2022/01/07 08:54:41;;;;;;;1.30;0.80;;;;;;;;;;4608313;27;20028;-58
2022/01/07 08:56:51;;;;;;;1.90;0.70;;;;;;;;;;4606612;27;20244;-59
2022/01/07 08:59:02;;;;;;;1.30;0.70;;;;;;;;;;4604537;27;20024;-59
2022/01/07 09:01:12;;;;;;;1.00;0.80;;;;;;;;;;4606993;27;20105;-59
2022/01/07 09:03:24;;;;;;;1.40;0.90;;;;;;;;;;4606689;27;20586;-60
2022/01/07 09:05:34;;;;;;;2.03;0.80;;;;;;;;;;4622795;27;20065;-60
2022/01/07 09:07:45;;;;;;;1.43;1.10;;;;;;;;;;4604768;27;20076;-59
2022/01/07 09:09:55;;;;;;;0.70;0.60;;;;;;;;;;4606792;27;20035;-59
2022/01/07 09:12:06;;;;;;;1.13;0.80;;;;;;;;;;4604975;27;31472;-60
2022/01/07 09:14:17;;;;;;;1.05;0.85;;;;;;;;;;4605074;27;21191;-60
2022/01/07 09:16:27;;;;;;;1.40;0.70;;;;;;;;;;4605799;27;20054;-60
2022/01/07 09:18:37;;;;;;;1.60;0.67;;;;;;;;;;4605195;27;20019;-60
2022/01/07 09:20:48;;;;;;;1.80;0.90;;;;;;;;;;4603228;27;20028;-60
2022/01/07 09:22:59;;;;;;;1.65;0.77;;;;;;;;;;4609342;27;20024;-60
2022/01/07 09:25:09;;;;;;;0.90;0.70;;;;;;;;;;4605732;27;20104;-61
2022/01/07 09:27:20;;;;;;;0.83;0.60;;;;;;;;;;4607473;27;20922;-60
2022/01/07 09:29:30;;;;;;;1.03;0.90;;;;;;;;;;4608875;27;20020;-60
2022/01/07 09:31:41;;;;;;;1.33;0.90;;;;;;;;;;4611166;27;20030;-60
2022/01/07 09:33:51;;;;;;;1.07;0.80;;;;;;;;;;4607195;27;20043;-60
2022/01/07 09:36:01;;;;;;;1.40;1.00;;;;;;;;;;4606325;27;20023;-60
2022/01/07 09:38:12;;;;;;;1.23;0.80;;;;;;;;;;4609600;27;20035;-59
2022/01/07 09:40:22;;;;;;;2.20;0.90;;;;;;;;;;4605994;27;20502;-62
2022/01/07 09:42:33;;;;;;;1.27;0.87;;;;;;;;;;4606029;27;20028;-60
2022/01/07 09:44:44;;;;;;;0.67;0.60;;;;;;;;;;4591132;27;20044;-60
2022/01/07 09:46:54;;;;;;;1.38;0.75;;;;;;;;;;4610237;27;20493;-60
2022/01/07 09:49:05;;;;;;;1.13;0.80;;;;;;;;;;4608029;27;20027;-61
2022/01/07 09:51:19;;;;;;;0.82;0.70;;;;;;;;;;4605710;27;20037;-63
2022/01/07 09:53:29;;;;;;;0.93;0.80;;;;;;;;;;4609478;27;20028;-60
2022/01/07 09:55:40;;;;;;;1.53;0.90;;;;;;;;;;4608332;27;20452;-60
2022/01/07 09:57:50;;;;;;;1.73;0.80;;;;;;;;;;4604348;27;20075;-60
2022/01/07 10:00:03;;;;;;;1.00;0.90;;;;;;;;;;4605559;27;20110;-61
2022/01/07 10:02:23;;;;;;;0.98;0.70;;;;;;;;;;4606825;27;20050;-60
2022/01/07 10:04:39;;;;;;;0.98;0.73;;;;;;;;;;4608804;27;20042;-63
2022/01/07 10:07:07;;;;;;;0.55;0.50;;;;;;;;;;4606298;27;20125;-59
2022/01/07 10:09:18;;;;;;;0.63;0.57;;;;;;;;;;4610883;27;20027;-60
2022/01/07 10:11:29;;;;;;;1.23;0.80;;;;;;;;;;4607556;27;20058;-60
2022/01/07 10:13:44;;;;;;;2.53;0.93;;;;;;;;;;4608695;27;20039;-60
2022/01/07 10:15:56;;;;;;;1.13;0.90;;;;;;;;;;4608458;27;20574;-60
2022/01/07 10:18:09;;;;;;;1.30;1.08;;;;;;;;;;4606466;27;20111;-60
2022/01/07 10:20:26;;;;;;;2.00;1.20;;;;;;;;;;4603882;27;20102;-59
2022/01/07 10:22:54;;;;;;;1.17;1.08;;;;;;;;;;4587118;27;20028;-59
2022/01/07 10:25:05;;;;;;;2.33;1.15;;;;;;;;;;4606777;27;20622;-61
2022/01/07 10:27:16;;;;;;;1.30;0.75;;;;;;;;;;4613547;27;20126;-60
2022/01/07 10:29:28;;;;;;;0.70;0.60;;;;;;;;;;4606524;27;20138;-60
2022/01/07 10:31:38;;;;;;;3.10;1.95;;;;;;;;;;4611195;27;20623;-60
2022/01/07 10:33:49;;;;;;;3.30;1.70;;;;;;;;;;4603653;27;20035;-60
2022/01/07 10:36:06;;;;;;;1.75;0.95;;;;;;;;;;4605253;27;20034;-60
2022/01/07 10:38:27;;;;;;;1.42;1.10;;;;;;;;;;4607562;27;20031;-60
2022/01/07 10:40:39;;;;;;;1.33;1.07;;;;;;;;;;4608399;27;20034;-58
2022/01/07 10:42:50;;;;;;;7.53;4.63;;;;;;;;;;4606378;27;20084;-62
2022/01/07 10:45:03;;;;;;;2.40;1.50;;;;;;;;;;4612742;27;21255;-59
2022/01/07 10:47:14;;;;;;;1.45;0.90;;;;;;;;;;4606591;27;20445;-59
2022/01/07 10:49:31;;;;;;;1.33;1.00;;;;;;;;;;4608281;27;20023;-59
2022/01/07 10:51:53;;;;;;;1.55;1.17;;;;;;;;;;4606728;27;20161;-60
2022/01/07 10:54:06;;;;;;;1.33;1.10;;;;;;;;;;4612092;27;20027;-59
2022/01/07 10:56:19;;;;;;;1.35;1.25;;;;;;;;;;4605878;27;20069;-59
2022/01/07 10:58:34;;;;;;;3.10;2.38;;;;;;;;;;4608489;27;20127;-60
2022/01/07 11:00:45;;;;;;;3.90;2.47;;;;;;;;;;4607524;27;20591;-59
2022/01/07 11:02:55;;;;;;;2.20;1.40;;;;;;;;;;4606472;27;20080;-59
2022/01/07 11:05:07;;;;;;;1.07;0.87;;;;;;;;;;4565642;27;20040;-58
2022/01/07 11:07:17;;;;;;;;;;;;;;;;;;4602585;27;20019;-60
2022/01/07 11:09:28;;;;;;;1.40;0.80;;;;;;;;;;4604416;27;19951;-60
2022/01/07 11:11:55;;;;;;;0.70;0.60;;;;;;;;;;4605840;27;20053;-60
2022/01/07 11:14:07;;;;;;;0.70;0.70;;;;;;;;;;4606112;27;20220;-63
2022/01/07 11:16:18;;;;;;;1.25;0.80;;;;;;;;;;4607478;27;20155;-61
2022/01/07 11:18:28;;;;;;;2.00;1.10;;;;;;;;;;4607095;27;20033;-60
2022/01/07 11:20:39;;;;;;;1.27;1.00;;;;;;;;;;4605994;27;20027;-63
2022/01/07 11:22:50;;;;;;;0.90;0.80;;;;;;;;;;4607310;27;20016;-60
2022/01/07 11:25:06;;;;;;;1.13;0.80;;;;;;;;;;4593359;27;20047;-62
2022/01/07 11:27:22;;;;;;;0.75;0.68;;;;;;;;;;4604231;27;20051;-60
2022/01/07 11:29:41;;;;;;;1.30;0.80;;;;;;;;;;4603532;27;20020;-57
2022/01/07 11:38:00;;;;;;;0.83;0.80;;;;;;;;;;4586859;27;20585;-58
2022/01/07 11:40:42;;;;;;;1.73;1.00;;;;;;;;;;4589766;27;20036;-56
2022/01/07 11:42:52;;;;;;;1.27;1.08;;;;;;;;;;4574708;27;20074;-56
2022/01/07 11:45:29;;;;;;;1.40;1.00;;;;;;;;;;4573784;27;20070;-57
2022/01/07 11:47:49;;;;;;;0.80;0.80;;;;;;;;;;4569784;27;20610;-58
2022/01/07 11:50:03;;;;;;;1.63;1.38;;;;;;;;;;4568645;27;20047;-58
2022/01/07 11:52:41;;;;;;;2.05;1.30;;;;;;;;;;4573882;27;20043;-60
2022/01/07 11:55:21;;;;;;;1.30;0.90;;;;;;;;;;4592146;27;20047;-59
2022/01/07 11:57:47;;;;;;;1.73;1.00;;;;;;;;;;4568528;27;20063;-60
2022/01/07 11:59:57;;;;;;;1.77;1.20;;;;;;;;;;4571778;27;20748;-58
2022/01/07 12:02:08;;;;;;;2.40;1.07;;;;;;;;;;4568171;27;25517;-58
2022/01/07 12:04:27;;;;;;;1.63;1.23;;;;;;;;;;4570047;27;20047;-58
2022/01/07 12:06:37;;;;;;;1.23;0.90;;;;;;;;;;4585886;27;20655;-58
2022/01/07 12:09:04;;;;;;;1.50;0.90;;;;;;;;;;4573936;27;20111;-58
2022/01/07 12:11:14;;;;;;;1.35;0.95;;;;;;;;;;4571653;27;20618;-58
2022/01/07 12:13:35;;;;;;;1.00;0.83;;;;;;;;;;4568733;27;20020;-58
2022/01/07 12:15:54;;;;;;;1.10;0.60;;;;;;;;;;4571822;27;20657;-57
2022/01/07 12:18:09;;;;;;;1.65;0.80;;;;;;;;;;4571715;27;20647;-57
2022/01/07 12:20:46;;;;;;;1.63;0.90;;;;;;;;;;4556152;27;20087;-57
2022/01/07 12:22:57;;;;;;;0.80;0.70;;;;;;;;;;4568707;27;20032;-59
2022/01/07 12:25:08;;;;;;;0.90;0.70;;;;;;;;;;4586999;27;22372;-57
2022/01/07 12:27:20;;;;;;;1.42;0.85;;;;;;;;;;4589449;27;20606;-59
2022/01/07 12:29:32;;;;;;;1.27;0.75;;;;;;;;;;4573347;27;20039;-58
2022/01/07 12:31:49;;;;;;;1.67;0.90;;;;;;;;;;4557887;27;21418;-57
2022/01/07 12:34:00;;;;;;;1.17;0.70;;;;;;;;;;4569339;27;20110;-58
2022/01/07 12:36:10;;;;;;;1.30;0.80;;;;;;;;;;4570843;27;20094;-58
2022/01/07 12:38:21;;;;;;;1.43;0.70;;;;;;;;;;4569737;27;20032;-58
2022/01/07 12:40:32;;;;;;;0.93;0.60;;;;;;;;;;4572330;27;20057;-59
2022/01/07 12:42:44;;;;;;;1.40;0.90;;;;;;;;;;4570871;27;20032;-60
2022/01/07 12:44:57;;;;;;;;;;;;;;;;;;4570871;27;20082;-58
2022/01/07 12:47:08;;;;;;;1.08;0.77;;;;;;;;;;4569206;27;19916;-59
2022/01/07 12:49:19;;;;;;;1.52;1.15;;;;;;;;;;4569741;27;20040;-58
2022/01/07 12:51:29;;;;;;;2.30;1.63;;;;;;;;;;4573887;27;20028;-63
2022/01/07 12:54:05;;;;;;;6.53;3.80;;;;;;;;;;4569907;27;20117;-57
2022/01/07 12:56:27;;;;;;;4.70;2.58;;;;;;;;;;4572323;27;20086;-58
2022/01/07 12:58:38;;;;;;;1.98;1.20;;;;;;;;;;4573355;27;20077;-59
2022/01/07 13:00:48;;;;;;;1.43;0.70;;;;;;;;;;4575464;27;20119;-68
2022/01/07 13:03:06;;;;;;;1.57;1.20;;;;;;;;;;4559438;27;20120;-58
2022/01/07 13:05:24;;;;;;;1.65;1.30;;;;;;;;;;4576368;27;20040;-58
2022/01/07 13:07:39;;;;;;;2.13;1.73;;;;;;;;;;4579030;27;20151;-58
2022/01/07 13:09:59;;;;;;;2.05;1.80;;;;;;;;;;4576120;27;20135;-58
2022/01/07 13:12:09;;;;;;;4.38;2.70;;;;;;;;;;4578939;27;20042;-58
2022/01/07 13:14:21;;;;;;;2.20;1.73;;;;;;;;;;4573161;27;20396;-58
2022/01/07 13:16:33;;;;;;;1.15;1.00;;;;;;;;;;4570975;27;20198;-58
2022/01/07 13:18:43;;;;;;;2.25;1.30;;;;;;;;;;4537779;27;20180;-58
2022/01/07 13:21:04;;;;;;;2.08;1.20;;;;;;;;;;4573466;27;20040;-57
2022/01/07 13:23:16;;;;;;;2.63;1.50;;;;;;;;;;4570604;27;20032;-58
2022/01/07 13:25:26;;;;;;;1.05;0.95;;;;;;;;;;4576374;27;20351;-58